createdAt,value
2023-04-17T00:01:07.617Z,100.00
2023-04-17T00:03:35.376Z,100.00
2023-04-17T00:06:03.421Z,100.00
2023-04-17T00:08:31.386Z,100.00
2023-04-17T00:11:07.070Z,100.00
2023-04-17T00:13:36.779Z,100.00
2023-04-17T00:16:04.874Z,100.00
2023-04-17T00:18:32.581Z,100.00
2023-04-17T00:21:00.299Z,100.00
2023-04-17T00:23:28.376Z,100.00
2023-04-17T00:25:56.115Z,100.00
2023-04-17T00:28:25.346Z,100.00
2023-04-17T00:30:53.330Z,100.00
2023-04-17T00:33:21.052Z,100.00
2023-04-17T00:35:48.679Z,100.00
2023-04-17T00:38:16.641Z,100.00
2023-04-17T00:40:45.339Z,100.00
2023-04-17T00:43:13.056Z,100.00
2023-04-17T00:45:43.175Z,100.00
2023-04-17T00:48:13.167Z,100.00
2023-04-17T00:50:40.935Z,100.00
2023-04-17T00:53:09.971Z,100.00
2023-04-17T00:55:40.900Z,100.00
2023-04-17T00:58:08.805Z,100.00
2023-04-17T01:00:37.005Z,100.00
2023-04-17T01:03:06.569Z,100.00
2023-04-17T01:05:35.436Z,100.00
2023-04-17T01:08:03.715Z,100.00
2023-04-17T01:10:31.371Z,100.00
2023-04-17T01:13:03.162Z,100.00
2023-04-17T01:15:31.218Z,100.00
2023-04-17T01:17:59.028Z,100.00
2023-04-17T01:20:31.342Z,100.00
2023-04-17T01:22:59.592Z,100.00
2023-04-17T01:25:29.299Z,100.00
2023-04-17T01:27:57.354Z,100.00
2023-04-17T01:30:25.827Z,100.00
2023-04-17T01:35:41.129Z,100.00
2023-04-17T01:38:09.151Z,100.00
2023-04-17T01:40:38.195Z,100.00
2023-04-17T01:43:06.018Z,100.00
2023-04-17T01:45:34.097Z,100.00
2023-04-17T01:48:01.825Z,100.00
2023-04-17T01:50:30.039Z,100.00
2023-04-17T01:52:57.691Z,100.00
2023-04-17T01:55:25.791Z,100.00
2023-04-17T01:57:55.120Z,100.00
2023-04-17T02:00:23.575Z,100.00
2023-04-17T02:02:51.456Z,100.00
2023-04-17T02:05:19.664Z,100.00
2023-04-17T02:07:47.310Z,100.00
2023-04-17T02:10:15.562Z,100.00
2023-04-17T02:12:43.303Z,100.00
2023-04-17T02:15:13.137Z,100.00
2023-04-17T02:17:41.680Z,100.00
2023-04-17T02:20:10.651Z,100.00
2023-04-17T02:22:38.294Z,100.00
2023-04-17T02:25:06.585Z,100.00
2023-04-17T02:27:34.185Z,100.00
2023-04-17T02:30:01.881Z,100.00
2023-04-17T02:32:31.009Z,100.00
2023-04-17T02:34:59.969Z,100.00
2023-04-17T02:37:28.109Z,100.00
2023-04-17T02:39:55.796Z,100.00
2023-04-17T02:42:23.491Z,100.00
2023-04-17T02:44:51.695Z,100.00
2023-04-17T02:47:19.377Z,100.00
2023-04-17T02:49:48.390Z,100.00
2023-04-17T02:52:16.538Z,100.00
2023-04-17T02:54:44.171Z,100.00
2023-04-17T02:57:12.193Z,100.00
2023-04-17T02:59:39.941Z,100.00
2023-04-17T03:02:08.004Z,100.00
2023-04-17T03:04:36.188Z,100.00
2023-04-17T03:07:06.599Z,100.00
2023-04-17T03:09:34.977Z,100.00
2023-04-17T03:12:03.006Z,100.00
2023-04-17T03:14:30.823Z,100.00
2023-04-17T03:16:58.664Z,100.00
2023-04-17T03:19:27.076Z,100.00
2023-04-17T03:21:54.806Z,100.00
2023-04-17T03:24:24.266Z,100.00
2023-04-17T03:26:52.340Z,100.00
2023-04-17T03:29:19.982Z,100.00
2023-04-17T03:31:47.693Z,100.00
2023-04-17T03:34:16.000Z,100.00
2023-04-17T03:36:43.673Z,100.00
2023-04-17T03:39:11.545Z,100.00
2023-04-17T03:41:41.444Z,100.00
2023-04-17T03:44:09.958Z,100.00
2023-04-17T03:46:38.432Z,100.00
2023-04-17T03:49:06.688Z,100.00
2023-04-17T03:51:34.317Z,100.00
2023-04-17T03:54:02.004Z,100.00
2023-04-17T03:56:30.074Z,100.00
2023-04-17T03:58:59.524Z,100.00
2023-04-17T04:01:28.450Z,100.00
2023-04-17T04:03:56.639Z,100.00
2023-04-17T04:06:24.459Z,100.00
2023-04-17T04:08:52.125Z,100.00
2023-04-17T04:11:20.179Z,100.00
2023-04-17T04:13:47.827Z,100.00
2023-04-17T04:16:16.835Z,100.00
2023-04-17T04:18:45.041Z,100.00
2023-04-17T04:21:13.073Z,100.00
2023-04-17T04:23:41.211Z,100.00
2023-04-17T04:26:09.521Z,100.00
2023-04-17T04:28:38.107Z,100.00
2023-04-17T04:31:07.212Z,100.00
2023-04-17T04:33:37.638Z,100.00
2023-04-17T04:36:05.904Z,100.00
2023-04-17T04:38:33.974Z,100.00
2023-04-17T04:41:06.108Z,100.00
2023-04-17T04:43:35.528Z,100.00
2023-04-17T04:46:03.427Z,100.00
2023-04-17T04:48:31.046Z,100.00
2023-04-17T04:51:00.562Z,100.00
2023-04-17T04:53:28.219Z,100.00
2023-04-17T04:55:55.905Z,100.00
2023-04-17T04:58:23.928Z,100.00
2023-04-17T05:00:51.764Z,100.00
2023-04-17T05:03:19.598Z,100.00
2023-04-17T05:05:47.897Z,100.00
2023-04-17T05:08:16.959Z,100.00
2023-04-17T05:10:46.307Z,100.00
2023-04-17T05:13:13.969Z,100.00
2023-04-17T05:15:43.529Z,100.00
2023-04-17T05:18:11.504Z,100.00
2023-04-17T05:20:39.161Z,100.00
2023-04-17T05:23:07.320Z,100.00
2023-04-17T05:25:36.477Z,100.00
2023-04-17T05:28:04.602Z,100.00
2023-04-17T05:30:32.243Z,100.00
2023-04-17T05:33:00.896Z,100.00
2023-04-17T05:35:29.320Z,100.00
2023-04-17T05:37:57.050Z,100.00
2023-04-17T05:40:25.014Z,100.00
2023-04-17T05:42:54.325Z,100.00
2023-04-17T05:45:24.201Z,100.00
2023-04-17T05:47:53.503Z,100.00
2023-04-17T05:50:21.387Z,100.00
2023-04-17T05:52:48.999Z,100.00
2023-04-17T05:55:17.935Z,100.00
2023-04-17T05:57:45.570Z,100.00
2023-04-17T06:00:16.395Z,100.00
2023-04-17T06:02:45.368Z,100.00
2023-04-17T06:05:13.234Z,100.00
2023-04-17T06:07:41.623Z,100.00
2023-04-17T06:10:10.351Z,100.00
2023-04-17T06:12:38.339Z,100.00
2023-04-17T06:15:09.259Z,100.00
2023-04-17T06:17:38.817Z,100.00
2023-04-17T06:20:10.960Z,100.00
2023-04-17T06:22:39.101Z,100.00
2023-04-17T06:25:08.357Z,100.00
2023-04-17T06:27:37.016Z,100.00
2023-04-17T06:30:06.350Z,100.00
2023-04-17T06:32:34.100Z,100.00
2023-04-17T06:35:04.838Z,100.00
2023-04-17T06:37:32.503Z,100.00
2023-04-17T06:40:00.513Z,100.00
2023-04-17T06:42:29.076Z,100.00
2023-04-17T06:44:57.270Z,100.00
2023-04-17T06:47:25.475Z,100.00
2023-04-17T06:49:53.125Z,100.00
2023-04-17T06:52:22.188Z,100.00
2023-04-17T06:54:49.896Z,100.00
2023-04-17T06:57:17.538Z,100.00
2023-04-17T06:59:45.941Z,100.00
2023-04-17T07:02:13.689Z,100.00
2023-04-17T07:04:41.793Z,100.00
2023-04-17T07:07:10.006Z,100.00
2023-04-17T07:09:39.104Z,100.00
2023-04-17T07:12:06.944Z,100.00
2023-04-17T07:14:35.621Z,100.00
2023-04-17T07:17:04.223Z,100.00
2023-04-17T07:19:32.371Z,100.00
2023-04-17T07:22:00.275Z,100.00
2023-04-17T07:24:28.358Z,100.00
2023-04-17T07:26:57.790Z,100.00
2023-04-17T07:29:26.000Z,100.00
2023-04-17T07:31:53.746Z,100.00
2023-04-17T07:34:22.170Z,100.00
2023-04-17T07:36:51.861Z,100.00
2023-04-17T07:39:20.004Z,100.00
2023-04-17T07:41:47.710Z,100.00
2023-04-17T07:44:16.765Z,100.00
2023-04-17T07:46:45.443Z,100.00
2023-04-17T07:49:13.257Z,100.00
2023-04-17T07:51:42.629Z,100.00
2023-04-17T07:54:10.869Z,100.00
2023-04-17T07:56:38.563Z,100.00
2023-04-17T07:59:06.200Z,100.00
2023-04-17T08:01:35.538Z,100.00
2023-04-17T08:04:03.634Z,100.00
2023-04-17T08:06:32.311Z,100.00
2023-04-17T08:09:02.110Z,100.00
2023-04-17T08:11:30.227Z,100.00
2023-04-17T08:13:58.118Z,100.00
2023-04-17T08:16:25.774Z,100.00
2023-04-17T08:18:55.936Z,100.00
2023-04-17T08:21:23.627Z,100.00
2023-04-17T08:23:51.898Z,100.00
2023-04-17T08:26:20.530Z,100.00
2023-04-17T08:28:48.612Z,100.00
2023-04-17T08:31:16.510Z,100.00
2023-04-17T08:33:44.212Z,100.00
2023-04-17T08:36:14.240Z,100.00
2023-04-17T08:38:42.076Z,100.00
2023-04-17T08:41:14.585Z,100.00
2023-04-17T08:43:42.742Z,100.00
2023-04-17T08:46:10.574Z,100.00
2023-04-17T08:48:38.770Z,100.00
2023-04-17T08:51:06.456Z,100.00
2023-04-17T08:53:35.921Z,100.00
2023-04-17T08:56:08.315Z,100.00
2023-04-17T08:58:37.863Z,100.00
2023-04-17T09:01:10.657Z,100.00
2023-04-17T09:03:43.463Z,100.00
2023-04-17T09:06:11.896Z,100.00
2023-04-17T09:08:55.548Z,100.00
2023-04-17T09:11:23.367Z,100.00
2023-04-17T09:13:51.116Z,100.00
2023-04-17T09:16:21.212Z,100.00
2023-04-17T09:18:49.440Z,100.00
2023-04-17T09:21:19.915Z,100.00
2023-04-17T09:23:51.775Z,100.00
2023-04-17T09:26:21.761Z,100.00
2023-04-17T09:29:03.910Z,100.00
2023-04-17T09:31:34.936Z,100.00
2023-04-17T09:34:04.347Z,100.00
2023-04-17T09:36:33.617Z,100.00
2023-04-17T09:39:05.302Z,100.00
2023-04-17T09:41:34.393Z,100.00
2023-04-17T09:44:05.490Z,100.00
2023-04-17T09:46:38.209Z,100.00
2023-04-17T09:49:11.221Z,100.00
2023-04-17T09:51:39.668Z,100.00
2023-04-17T09:54:12.059Z,100.00
2023-04-17T09:56:42.157Z,100.00
2023-04-17T09:59:10.361Z,99.56
2023-04-17T10:01:40.182Z,98.17
2023-04-17T10:04:08.558Z,96.73
2023-04-17T10:06:37.071Z,96.80
2023-04-17T10:09:05.752Z,96.14
2023-04-17T10:11:38.578Z,95.95
2023-04-17T10:14:13.164Z,95.01
2023-04-17T10:16:43.461Z,93.90
2023-04-17T10:19:32.204Z,91.06
2023-04-17T10:22:31.680Z,91.75
2023-04-17T10:25:18.917Z,91.60
2023-04-17T10:27:50.587Z,91.66
2023-04-17T10:33:24.538Z,92.48
2023-04-17T10:35:53.509Z,91.72
2023-04-17T10:38:35.121Z,89.66
2023-04-17T10:41:09.617Z,91.00
2023-04-17T10:43:41.844Z,90.92
2023-04-17T10:46:11.384Z,91.36
2023-04-17T10:48:48.041Z,92.08
2023-04-17T10:51:42.600Z,91.09
2023-04-17T10:54:13.844Z,88.51
2023-04-17T10:56:44.797Z,87.55
2023-04-17T10:59:13.927Z,87.07
2023-04-17T11:02:02.170Z,86.87
2023-04-17T11:04:33.686Z,87.03
2023-04-17T11:07:01.856Z,87.22
2023-04-17T11:09:30.787Z,87.48
2023-04-17T11:12:01.251Z,86.91
2023-04-17T11:14:30.673Z,86.79
2023-04-17T11:16:58.417Z,85.48
2023-04-17T11:19:28.372Z,86.05
2023-04-17T11:21:58.604Z,87.13
2023-04-17T11:24:28.161Z,86.80
2023-04-17T11:26:57.746Z,88.45
2023-04-17T11:29:26.278Z,88.63
2023-04-17T11:31:56.642Z,88.87
2023-04-17T11:34:26.086Z,86.23
2023-04-17T11:36:56.536Z,85.52
2023-04-17T11:39:26.978Z,86.91
2023-04-17T11:41:54.932Z,87.16
2023-04-17T11:44:23.056Z,86.58
2023-04-17T11:46:52.077Z,87.69
2023-04-17T11:49:25.497Z,89.40
2023-04-17T11:51:53.391Z,89.07
2023-04-17T11:54:22.866Z,90.06
2023-04-17T11:57:01.465Z,88.99
2023-04-17T11:59:33.524Z,88.48
2023-04-17T12:02:02.036Z,87.13
2023-04-17T12:04:34.322Z,85.69
2023-04-17T12:07:02.741Z,86.05
2023-04-17T12:09:32.089Z,86.47
2023-04-17T12:12:03.477Z,86.18
2023-04-17T12:14:31.338Z,87.25
2023-04-17T12:16:59.767Z,87.94
2023-04-17T12:19:29.255Z,85.60
2023-04-17T12:21:58.371Z,86.65
2023-04-17T12:24:26.135Z,87.46
2023-04-17T12:26:54.864Z,87.96
2023-04-17T12:29:36.130Z,88.32
2023-04-17T12:32:11.855Z,89.62
2023-04-17T12:34:39.667Z,89.88
2023-04-17T12:37:07.393Z,89.70
2023-04-17T12:39:35.872Z,90.30
2023-04-17T12:42:03.623Z,89.71
2023-04-17T12:44:33.173Z,89.91
2023-04-17T12:47:00.827Z,89.20
2023-04-17T12:49:28.575Z,87.33
2023-04-17T12:51:56.815Z,86.37
2023-04-17T12:54:24.587Z,86.23
2023-04-17T12:56:52.660Z,86.41
2023-04-17T12:59:20.367Z,87.06
2023-04-17T13:01:49.472Z,87.81
2023-04-17T13:04:18.618Z,88.44
2023-04-17T13:06:47.064Z,89.65
2023-04-17T13:09:17.225Z,90.17
2023-04-17T13:11:44.898Z,90.16
2023-04-17T13:14:12.698Z,89.82
2023-04-17T13:16:41.042Z,90.00
2023-04-17T13:19:10.267Z,89.47
2023-04-17T13:21:38.327Z,89.93
2023-04-17T13:24:06.838Z,90.38
2023-04-17T13:26:34.833Z,90.79
2023-04-17T13:29:02.516Z,90.40
2023-04-17T13:31:30.589Z,90.73
2023-04-17T13:33:58.366Z,91.14
2023-04-17T13:36:27.695Z,91.95
2023-04-17T13:38:55.555Z,91.56
2023-04-17T13:41:23.550Z,92.25
2023-04-17T13:43:51.167Z,91.73
2023-04-17T13:46:18.851Z,92.33
2023-04-17T13:48:47.016Z,93.53
2023-04-17T13:51:15.389Z,93.51
2023-04-17T13:53:44.732Z,93.47
2023-04-17T13:56:12.374Z,93.70
2023-04-17T13:58:40.379Z,93.27
2023-04-17T14:01:08.894Z,93.32
2023-04-17T14:03:38.294Z,94.08
2023-04-17T14:06:08.625Z,94.09
2023-04-17T14:08:36.426Z,95.53
2023-04-17T14:11:05.563Z,95.06
2023-04-17T14:13:33.754Z,95.56
2023-04-17T14:16:01.534Z,97.30
2023-04-17T14:18:29.914Z,98.34
2023-04-17T14:20:57.572Z,99.22
2023-04-17T14:23:25.522Z,99.92
2023-04-17T14:25:53.434Z,100.00
2023-04-17T14:28:22.504Z,100.00
2023-04-17T14:30:50.721Z,100.00
2023-04-17T14:33:18.392Z,100.00
2023-04-17T14:35:46.104Z,100.00
2023-04-17T14:38:14.096Z,100.00
2023-04-17T14:41:01.860Z,100.00
2023-04-17T14:43:31.334Z,100.00
2023-04-17T14:45:59.356Z,100.00
2023-04-17T14:48:27.038Z,100.00
2023-04-17T14:50:54.678Z,100.00
2023-04-17T14:53:22.787Z,100.00
2023-04-17T14:55:50.542Z,100.00
2023-04-17T14:58:18.650Z,100.00
2023-04-17T15:00:47.790Z,100.00
2023-04-17T15:03:16.860Z,100.00
2023-04-17T15:05:46.157Z,100.00
2023-04-17T15:08:14.205Z,100.00
2023-04-17T15:10:50.763Z,100.00
2023-04-17T15:13:19.524Z,100.00
2023-04-17T15:15:48.645Z,100.00
2023-04-17T15:18:16.273Z,100.00
2023-04-17T15:20:44.994Z,100.00
2023-04-17T15:23:13.036Z,100.00
2023-04-17T15:25:41.756Z,100.00
2023-04-17T15:28:09.857Z,100.00
2023-04-17T15:30:37.967Z,100.00
2023-04-17T15:33:09.221Z,100.00
2023-04-17T15:35:38.489Z,100.00
2023-04-17T15:38:06.827Z,100.00
2023-04-17T15:40:34.833Z,100.00
2023-04-17T15:43:03.907Z,100.00
2023-04-17T15:45:32.254Z,100.00
2023-04-17T15:48:01.317Z,100.00
2023-04-17T15:50:30.512Z,100.00
2023-04-17T15:52:58.900Z,100.00
2023-04-17T15:55:26.636Z,100.00
2023-04-17T15:57:54.385Z,100.00
2023-04-17T16:00:24.077Z,100.00
2023-04-17T16:02:52.206Z,100.00
2023-04-17T16:05:20.932Z,100.00
2023-04-17T16:07:50.150Z,100.00
2023-04-17T16:10:18.866Z,100.00
2023-04-17T16:12:47.252Z,100.00
2023-04-17T16:15:17.404Z,100.00
2023-04-17T16:17:48.805Z,100.00
2023-04-17T16:20:16.820Z,100.00
2023-04-17T16:22:44.506Z,100.00
2023-04-17T16:25:13.606Z,100.00
2023-04-17T16:27:42.828Z,100.00
2023-04-17T16:30:11.008Z,100.00
2023-04-17T16:32:39.103Z,100.00
2023-04-17T16:35:07.649Z,100.00
2023-04-17T16:37:35.650Z,100.00
2023-04-17T16:40:04.876Z,100.00
2023-04-17T16:42:34.678Z,100.00
2023-04-17T16:45:02.690Z,100.00
2023-04-17T16:47:30.450Z,100.00
2023-04-17T16:49:58.557Z,100.00
2023-04-17T16:52:26.219Z,100.00
2023-04-17T16:54:54.269Z,100.00
2023-04-17T16:57:21.977Z,100.00
2023-04-17T16:59:51.246Z,100.00
2023-04-17T17:02:18.912Z,100.00
2023-04-17T17:04:47.229Z,100.00
2023-04-17T17:07:15.083Z,100.00
2023-04-17T17:09:42.721Z,100.00
2023-04-17T17:12:12.281Z,100.00
2023-04-17T17:14:39.931Z,100.00
2023-04-17T17:17:08.986Z,100.00
2023-04-17T17:19:37.111Z,100.00
2023-04-17T17:22:04.850Z,100.00
2023-04-17T17:24:32.487Z,100.00
2023-04-17T17:27:00.872Z,100.00
2023-04-17T17:29:28.564Z,100.00
2023-04-17T17:31:56.538Z,100.00
2023-04-17T17:34:27.093Z,100.00
2023-04-17T17:36:55.520Z,100.00
2023-04-17T17:39:23.204Z,100.00
2023-04-17T17:41:50.919Z,100.00
2023-04-17T17:44:18.907Z,100.00
2023-04-17T17:46:46.534Z,100.00
2023-04-17T17:49:14.144Z,100.00
2023-04-17T17:51:44.775Z,100.00
2023-04-17T17:54:12.399Z,100.00
2023-04-17T17:56:40.369Z,100.00
2023-04-17T17:59:10.132Z,100.00
2023-04-17T18:01:37.863Z,100.00
2023-04-17T18:04:06.174Z,100.00
2023-04-17T18:06:33.988Z,100.00
2023-04-17T18:09:03.862Z,100.00
2023-04-17T18:11:31.905Z,100.00
2023-04-17T18:14:00.632Z,100.00
2023-04-17T18:16:31.749Z,100.00
2023-04-17T18:19:01.965Z,100.00
2023-04-17T18:21:29.933Z,100.00
2023-04-17T18:23:57.965Z,100.00
2023-04-17T18:26:27.350Z,100.00
2023-04-17T18:28:55.018Z,100.00
2023-04-17T18:31:24.813Z,100.00
2023-04-17T18:33:52.535Z,100.00
2023-04-17T18:36:20.414Z,100.00
2023-04-17T18:38:48.101Z,100.00
2023-04-17T18:41:16.942Z,100.00
2023-04-17T18:43:45.983Z,100.00
2023-04-17T18:46:14.156Z,100.00
2023-04-17T18:48:41.762Z,100.00
2023-04-17T18:51:11.240Z,100.00
2023-04-17T18:53:39.047Z,100.00
2023-04-17T18:56:08.504Z,100.00
2023-04-17T18:58:38.038Z,100.00
2023-04-17T19:01:08.082Z,100.00
2023-04-17T19:03:36.888Z,100.00
2023-04-17T19:06:04.654Z,100.00
2023-04-17T19:08:32.768Z,100.00
2023-04-17T19:11:00.997Z,100.00
2023-04-17T19:13:28.669Z,100.00
2023-04-17T19:15:56.832Z,100.00
2023-04-17T19:18:26.429Z,100.00
2023-04-17T19:20:54.082Z,100.00
2023-04-17T19:23:21.721Z,100.00
2023-04-17T19:25:53.883Z,100.00
2023-04-17T19:28:21.826Z,100.00
2023-04-17T19:30:49.907Z,100.00
2023-04-17T19:33:19.005Z,100.00
2023-04-17T19:35:48.122Z,100.00
2023-04-17T19:38:17.359Z,100.00
2023-04-17T19:40:48.264Z,100.00
2023-04-17T19:43:15.894Z,100.00
2023-04-17T19:45:43.891Z,100.00
2023-04-17T19:48:12.212Z,100.00
2023-04-17T19:50:39.835Z,100.00
2023-04-17T19:53:08.811Z,100.00
2023-04-17T19:55:36.896Z,100.00
2023-04-17T19:58:04.534Z,100.00
2023-04-17T20:00:32.118Z,100.00
2023-04-17T20:03:01.187Z,100.00
2023-04-17T20:05:28.940Z,100.00
2023-04-17T20:07:56.630Z,100.00
2023-04-17T20:10:26.827Z,100.00
2023-04-17T20:12:54.494Z,100.00
2023-04-17T20:15:22.229Z,100.00
2023-04-17T20:17:51.563Z,100.00
2023-04-17T20:20:19.249Z,100.00
2023-04-17T20:22:46.961Z,100.00
2023-04-17T20:25:14.933Z,100.00
2023-04-17T20:27:44.393Z,100.00
2023-04-17T20:30:13.110Z,100.00
2023-04-17T20:32:42.573Z,100.00
2023-04-17T20:35:11.586Z,100.00
2023-04-17T20:37:40.703Z,100.00
2023-04-17T20:40:11.005Z,100.00
2023-04-17T20:42:39.092Z,100.00
2023-04-17T20:45:11.019Z,100.00
2023-04-17T20:47:46.335Z,100.00
2023-04-17T20:50:23.046Z,100.00
2023-04-17T20:52:51.124Z,100.00
2023-04-17T20:55:19.815Z,100.00
2023-04-17T20:57:48.187Z,100.00
2023-04-17T21:00:17.637Z,100.00
2023-04-17T21:02:46.374Z,100.00
2023-04-17T21:05:14.469Z,100.00
2023-04-17T21:07:42.095Z,100.00
2023-04-17T21:10:10.004Z,100.00
2023-04-17T21:12:37.674Z,100.00
2023-04-17T21:15:06.269Z,100.00
2023-04-17T21:17:35.414Z,100.00
2023-04-17T21:20:05.508Z,100.00
2023-04-17T21:22:33.248Z,100.00
2023-04-17T21:25:01.504Z,100.00
2023-04-17T21:27:29.431Z,100.00
2023-04-17T21:29:57.082Z,100.00
2023-04-17T21:32:25.185Z,100.00
2023-04-17T21:34:54.240Z,100.00
2023-04-17T21:37:22.412Z,100.00
2023-04-17T21:39:50.044Z,100.00
2023-04-17T21:42:18.210Z,100.00
2023-04-17T21:44:45.886Z,100.00
2023-04-17T21:47:14.771Z,100.00
2023-04-17T21:49:43.463Z,100.00
2023-04-17T21:52:12.852Z,100.00
2023-04-17T21:54:40.551Z,100.00
2023-04-17T21:57:08.183Z,100.00
2023-04-17T21:59:36.373Z,100.00
2023-04-17T22:02:04.617Z,100.00
2023-04-17T22:04:32.663Z,100.00
2023-04-17T22:07:00.840Z,100.00
2023-04-17T22:09:30.310Z,100.00
2023-04-17T22:11:58.593Z,100.00
2023-04-17T22:14:26.529Z,100.00
2023-04-17T22:16:54.217Z,100.00
2023-04-17T22:19:22.335Z,100.00
2023-04-17T22:21:49.987Z,100.00
2023-04-17T22:24:18.856Z,100.00
2023-04-17T22:26:47.853Z,100.00
2023-04-17T22:29:16.095Z,100.00
2023-04-17T22:31:43.729Z,100.00
2023-04-17T22:34:11.503Z,100.00
2023-04-17T22:36:39.381Z,100.00
2023-04-17T22:39:07.067Z,100.00
2023-04-17T22:41:34.761Z,100.00
2023-04-17T22:44:05.472Z,100.00
2023-04-17T22:46:33.141Z,100.00
2023-04-17T22:49:01.808Z,100.00
2023-04-17T22:51:29.603Z,100.00
2023-04-17T22:53:58.722Z,100.00
2023-04-17T22:56:27.570Z,100.00
2023-04-17T22:58:55.499Z,100.00
2023-04-17T23:01:24.583Z,100.00
2023-04-17T23:03:53.444Z,100.00
2023-04-17T23:06:23.480Z,100.00
2023-04-17T23:08:51.343Z,100.00
2023-04-17T23:11:19.988Z,100.00
2023-04-17T23:13:47.608Z,100.00
2023-04-17T23:16:16.701Z,100.00
2023-04-17T23:18:47.317Z,100.00
2023-04-17T23:21:15.696Z,100.00
2023-04-17T23:23:44.927Z,100.00
2023-04-17T23:26:16.650Z,100.00
2023-04-17T23:28:44.318Z,100.00
2023-04-17T23:31:12.422Z,100.00
2023-04-17T23:33:40.289Z,100.00
2023-04-17T23:36:09.581Z,100.00
2023-04-17T23:38:37.636Z,100.00
2023-04-17T23:41:05.307Z,100.00
2023-04-17T23:43:34.175Z,100.00
2023-04-17T23:46:02.287Z,100.00
2023-04-17T23:48:29.942Z,100.00
2023-04-17T23:50:58.090Z,100.00
2023-04-17T23:53:27.113Z,100.00
2023-04-17T23:55:55.061Z,100.00
2023-04-17T23:58:23.008Z,100.00
